sensor_id;sensor_type;location;lat;lon;timestamp;P1;durP1;ratioP1;P2;durP2;ratioP2
75843;SDS011;64492;51.270;3.912;2022-11-20T00:00:11;7.50;;;4.72;;
75843;SDS011;64492;51.270;3.912;2022-11-20T00:02:40;8.48;;;5.38;;
75843;SDS011;64492;51.270;3.912;2022-11-20T00:05:07;7.03;;;4.72;;
75843;SDS011;64492;51.270;3.912;2022-11-20T00:07:34;7.10;;;4.90;;
75843;SDS011;64492;51.270;3.912;2022-11-20T00:10:01;7.10;;;5.05;;
75843;SDS011;64492;51.270;3.912;2022-11-20T00:12:27;7.28;;;4.65;;
75843;SDS011;64492;51.270;3.912;2022-11-20T00:14:54;9.68;;;5.55;;
75843;SDS011;64492;51.270;3.912;2022-11-20T00:17:20;6.43;;;4.35;;
75843;SDS011;64492;51.270;3.912;2022-11-20T00:19:48;7.10;;;5.15;;
75843;SDS011;64492;51.270;3.912;2022-11-20T00:22:14;8.85;;;5.00;;
75843;SDS011;64492;51.270;3.912;2022-11-20T00:24:41;6.60;;;4.88;;
75843;SDS011;64492;51.270;3.912;2022-11-20T00:27:07;7.45;;;5.28;;
75843;SDS011;64492;51.270;3.912;2022-11-20T00:29:34;6.53;;;4.85;;
75843;SDS011;64492;51.270;3.912;2022-11-20T00:32:00;6.07;;;4.22;;
75843;SDS011;64492;51.270;3.912;2022-11-20T00:34:27;8.02;;;5.38;;
75843;SDS011;64492;51.270;3.912;2022-11-20T00:36:55;7.00;;;5.03;;
75843;SDS011;64492;51.270;3.912;2022-11-20T00:39:21;7.50;;;5.00;;
75843;SDS011;64492;51.270;3.912;2022-11-20T00:41:48;8.27;;;5.38;;
75843;SDS011;64492;51.270;3.912;2022-11-20T00:44:15;8.10;;;4.72;;
75843;SDS011;64492;51.270;3.912;2022-11-20T00:46:41;7.28;;;5.03;;
75843;SDS011;64492;51.270;3.912;2022-11-20T00:49:08;7.68;;;5.28;;
75843;SDS011;64492;51.270;3.912;2022-11-20T00:51:34;7.10;;;4.78;;
75843;SDS011;64492;51.270;3.912;2022-11-20T00:54:02;6.75;;;4.80;;
75843;SDS011;64492;51.270;3.912;2022-11-20T00:56:29;7.10;;;4.95;;
75843;SDS011;64492;51.270;3.912;2022-11-20T00:58:55;6.88;;;4.57;;
75843;SDS011;64492;51.270;3.912;2022-11-20T01:01:25;6.97;;;4.72;;
75843;SDS011;64492;51.270;3.912;2022-11-20T01:06:21;7.53;;;4.80;;
75843;SDS011;64492;51.270;3.912;2022-11-20T01:08:49;6.43;;;4.35;;
75843;SDS011;64492;51.270;3.912;2022-11-20T01:11:19;7.35;;;4.50;;
75843;SDS011;64492;51.270;3.912;2022-11-20T01:13:48;7.20;;;4.50;;
75843;SDS011;64492;51.270;3.912;2022-11-20T01:16:16;7.43;;;4.78;;
75843;SDS011;64492;51.270;3.912;2022-11-20T01:18:45;7.63;;;4.55;;
75843;SDS011;64492;51.270;3.912;2022-11-20T01:21:13;8.20;;;5.25;;
75843;SDS011;64492;51.270;3.912;2022-11-20T01:26:08;8.35;;;4.72;;
75843;SDS011;64492;51.270;3.912;2022-11-20T01:28:37;7.00;;;5.15;;
75843;SDS011;64492;51.270;3.912;2022-11-20T01:31:10;8.65;;;5.10;;
75843;SDS011;64492;51.270;3.912;2022-11-20T01:33:38;7.18;;;4.65;;
75843;SDS011;64492;51.270;3.912;2022-11-20T01:36:05;8.68;;;5.15;;
75843;SDS011;64492;51.270;3.912;2022-11-20T01:38:32;7.95;;;4.80;;
75843;SDS011;64492;51.270;3.912;2022-11-20T01:40:59;7.05;;;5.03;;
75843;SDS011;64492;51.270;3.912;2022-11-20T01:43:26;6.72;;;4.68;;
75843;SDS011;64492;51.270;3.912;2022-11-20T01:46:03;7.80;;;4.82;;
75843;SDS011;64492;51.270;3.912;2022-11-20T01:48:33;7.30;;;4.70;;
75843;SDS011;64492;51.270;3.912;2022-11-20T01:51:02;8.48;;;5.20;;
75843;SDS011;64492;51.270;3.912;2022-11-20T01:53:30;8.07;;;5.20;;
75843;SDS011;64492;51.270;3.912;2022-11-20T01:55:58;7.38;;;4.90;;
75843;SDS011;64492;51.270;3.912;2022-11-20T01:58:27;8.15;;;5.00;;
75843;SDS011;64492;51.270;3.912;2022-11-20T02:00:55;8.57;;;5.35;;
75843;SDS011;64492;51.270;3.912;2022-11-20T02:03:23;7.25;;;5.07;;
75843;SDS011;64492;51.270;3.912;2022-11-20T02:05:51;7.80;;;4.80;;
75843;SDS011;64492;51.270;3.912;2022-11-20T02:08:21;8.48;;;5.28;;
75843;SDS011;64492;51.270;3.912;2022-11-20T02:10:49;9.63;;;5.47;;
75843;SDS011;64492;51.270;3.912;2022-11-20T02:13:16;8.10;;;4.88;;
75843;SDS011;64492;51.270;3.912;2022-11-20T02:16:00;8.27;;;5.15;;
75843;SDS011;64492;51.270;3.912;2022-11-20T02:18:28;9.45;;;6.28;;
75843;SDS011;64492;51.270;3.912;2022-11-20T02:20:57;9.98;;;5.75;;
75843;SDS011;64492;51.270;3.912;2022-11-20T02:23:27;8.98;;;5.95;;
75843;SDS011;64492;51.270;3.912;2022-11-20T02:26:00;10.18;;;6.18;;
75843;SDS011;64492;51.270;3.912;2022-11-20T02:28:28;8.38;;;5.15;;
75843;SDS011;64492;51.270;3.912;2022-11-20T02:30:55;9.38;;;5.35;;
75843;SDS011;64492;51.270;3.912;2022-11-20T02:33:21;8.77;;;5.78;;
75843;SDS011;64492;51.270;3.912;2022-11-20T02:35:48;9.85;;;6.32;;
75843;SDS011;64492;51.270;3.912;2022-11-20T02:38:14;9.68;;;6.25;;
75843;SDS011;64492;51.270;3.912;2022-11-20T02:40:41;9.95;;;5.88;;
75843;SDS011;64492;51.270;3.912;2022-11-20T02:43:09;8.18;;;5.25;;
75843;SDS011;64492;51.270;3.912;2022-11-20T02:45:36;10.93;;;6.53;;
75843;SDS011;64492;51.270;3.912;2022-11-20T02:48:03;9.55;;;5.90;;
75843;SDS011;64492;51.270;3.912;2022-11-20T02:50:30;11.52;;;6.28;;
75843;SDS011;64492;51.270;3.912;2022-11-20T02:52:56;9.23;;;6.05;;
75843;SDS011;64492;51.270;3.912;2022-11-20T02:55:23;10.88;;;6.82;;
75843;SDS011;64492;51.270;3.912;2022-11-20T02:57:49;12.30;;;6.60;;
75843;SDS011;64492;51.270;3.912;2022-11-20T03:00:17;10.40;;;6.30;;
75843;SDS011;64492;51.270;3.912;2022-11-20T03:05:10;10.98;;;6.47;;
75843;SDS011;64492;51.270;3.912;2022-11-20T03:07:37;9.75;;;6.00;;
75843;SDS011;64492;51.270;3.912;2022-11-20T03:10:04;11.88;;;6.55;;
75843;SDS011;64492;51.270;3.912;2022-11-20T03:12:31;11.20;;;7.03;;
75843;SDS011;64492;51.270;3.912;2022-11-20T03:14:58;10.60;;;6.55;;
75843;SDS011;64492;51.270;3.912;2022-11-20T03:17:26;8.88;;;6.10;;
75843;SDS011;64492;51.270;3.912;2022-11-20T03:19:52;9.48;;;6.35;;
75843;SDS011;64492;51.270;3.912;2022-11-20T03:22:19;11.15;;;6.32;;
75843;SDS011;64492;51.270;3.912;2022-11-20T03:24:45;12.60;;;7.30;;
75843;SDS011;64492;51.270;3.912;2022-11-20T03:27:12;11.15;;;6.97;;
75843;SDS011;64492;51.270;3.912;2022-11-20T03:29:38;12.02;;;7.20;;
75843;SDS011;64492;51.270;3.912;2022-11-20T03:32:05;11.40;;;6.95;;
75843;SDS011;64492;51.270;3.912;2022-11-20T03:34:33;12.95;;;7.28;;
75843;SDS011;64492;51.270;3.912;2022-11-20T03:36:59;13.30;;;7.72;;
75843;SDS011;64492;51.270;3.912;2022-11-20T03:39:25;11.82;;;7.70;;
75843;SDS011;64492;51.270;3.912;2022-11-20T03:41:52;11.05;;;6.60;;
75843;SDS011;64492;51.270;3.912;2022-11-20T03:44:20;13.88;;;7.43;;
75843;SDS011;64492;51.270;3.912;2022-11-20T03:46:47;11.68;;;8.05;;
75843;SDS011;64492;51.270;3.912;2022-11-20T03:49:14;11.88;;;7.15;;
75843;SDS011;64492;51.270;3.912;2022-11-20T03:51:42;11.57;;;7.45;;
75843;SDS011;64492;51.270;3.912;2022-11-20T03:54:08;13.13;;;7.55;;
75843;SDS011;64492;51.270;3.912;2022-11-20T03:56:37;12.27;;;7.53;;
75843;SDS011;64492;51.270;3.912;2022-11-20T03:59:04;12.48;;;7.40;;
75843;SDS011;64492;51.270;3.912;2022-11-20T04:01:31;13.32;;;7.97;;
75843;SDS011;64492;51.270;3.912;2022-11-20T04:03:59;14.20;;;7.88;;
75843;SDS011;64492;51.270;3.912;2022-11-20T04:06:26;14.15;;;7.60;;
75843;SDS011;64492;51.270;3.912;2022-11-20T04:08:55;13.13;;;8.80;;
75843;SDS011;64492;51.270;3.912;2022-11-20T04:11:22;12.45;;;7.75;;
75843;SDS011;64492;51.270;3.912;2022-11-20T04:13:50;12.40;;;7.75;;
75843;SDS011;64492;51.270;3.912;2022-11-20T04:16:18;12.95;;;7.57;;
75843;SDS011;64492;51.270;3.912;2022-11-20T04:18:46;13.65;;;7.70;;
75843;SDS011;64492;51.270;3.912;2022-11-20T04:21:12;14.18;;;8.60;;
75843;SDS011;64492;51.270;3.912;2022-11-20T04:23:39;14.77;;;8.50;;
75843;SDS011;64492;51.270;3.912;2022-11-20T04:26:07;14.95;;;8.85;;
75843;SDS011;64492;51.270;3.912;2022-11-20T04:28:35;16.45;;;8.50;;
75843;SDS011;64492;51.270;3.912;2022-11-20T04:31:03;12.77;;;7.55;;
75843;SDS011;64492;51.270;3.912;2022-11-20T04:35:59;13.45;;;7.55;;
75843;SDS011;64492;51.270;3.912;2022-11-20T04:38:27;13.38;;;7.95;;
75843;SDS011;64492;51.270;3.912;2022-11-20T04:40:55;13.25;;;8.40;;
75843;SDS011;64492;51.270;3.912;2022-11-20T04:43:24;12.85;;;7.68;;
75843;SDS011;64492;51.270;3.912;2022-11-20T04:45:51;13.25;;;7.90;;
75843;SDS011;64492;51.270;3.912;2022-11-20T04:48:17;13.25;;;7.53;;
75843;SDS011;64492;51.270;3.912;2022-11-20T04:50:44;14.23;;;8.13;;
75843;SDS011;64492;51.270;3.912;2022-11-20T04:53:10;13.82;;;8.20;;
75843;SDS011;64492;51.270;3.912;2022-11-20T04:55:37;13.10;;;7.78;;
75843;SDS011;64492;51.270;3.912;2022-11-20T04:58:03;13.30;;;8.25;;
75843;SDS011;64492;51.270;3.912;2022-11-20T05:00:31;12.60;;;7.55;;
75843;SDS011;64492;51.270;3.912;2022-11-20T05:02:58;13.65;;;8.13;;
75843;SDS011;64492;51.270;3.912;2022-11-20T05:05:24;13.80;;;8.43;;
75843;SDS011;64492;51.270;3.912;2022-11-20T05:07:51;13.07;;;7.70;;
75843;SDS011;64492;51.270;3.912;2022-11-20T05:10:17;15.52;;;8.70;;
75843;SDS011;64492;51.270;3.912;2022-11-20T05:12:44;14.48;;;7.28;;
75843;SDS011;64492;51.270;3.912;2022-11-20T05:15:10;13.43;;;8.02;;
75843;SDS011;64492;51.270;3.912;2022-11-20T05:17:38;14.55;;;8.27;;
75843;SDS011;64492;51.270;3.912;2022-11-20T05:20:05;12.95;;;7.97;;
75843;SDS011;64492;51.270;3.912;2022-11-20T05:22:32;14.82;;;8.02;;
75843;SDS011;64492;51.270;3.912;2022-11-20T05:24:58;13.75;;;8.63;;
75843;SDS011;64492;51.270;3.912;2022-11-20T05:27:25;12.90;;;7.72;;
75843;SDS011;64492;51.270;3.912;2022-11-20T05:29:51;14.02;;;8.13;;
75843;SDS011;64492;51.270;3.912;2022-11-20T05:32:18;13.13;;;7.78;;
75843;SDS011;64492;51.270;3.912;2022-11-20T05:34:46;12.10;;;8.02;;
75843;SDS011;64492;51.270;3.912;2022-11-20T05:37:12;12.48;;;7.55;;
75843;SDS011;64492;51.270;3.912;2022-11-20T05:39:39;13.75;;;8.35;;
75843;SDS011;64492;51.270;3.912;2022-11-20T05:42:05;12.02;;;7.78;;
75843;SDS011;64492;51.270;3.912;2022-11-20T05:44:49;13.13;;;7.85;;
75843;SDS011;64492;51.270;3.912;2022-11-20T05:47:16;12.02;;;7.90;;
75843;SDS011;64492;51.270;3.912;2022-11-20T05:49:42;12.35;;;7.70;;
75843;SDS011;64492;51.270;3.912;2022-11-20T05:52:10;13.80;;;8.20;;
75843;SDS011;64492;51.270;3.912;2022-11-20T05:54:36;12.20;;;7.95;;
75843;SDS011;64492;51.270;3.912;2022-11-20T05:57:03;13.68;;;8.30;;
75843;SDS011;64492;51.270;3.912;2022-11-20T05:59:29;12.20;;;7.85;;
75843;SDS011;64492;51.270;3.912;2022-11-20T06:01:56;13.40;;;8.00;;
75843;SDS011;64492;51.270;3.912;2022-11-20T06:04:22;12.82;;;8.35;;
75843;SDS011;64492;51.270;3.912;2022-11-20T06:06:49;11.55;;;7.50;;
75843;SDS011;64492;51.270;3.912;2022-11-20T06:09:17;12.35;;;8.10;;
75843;SDS011;64492;51.270;3.912;2022-11-20T06:11:43;12.70;;;7.88;;
75843;SDS011;64492;51.270;3.912;2022-11-20T06:14:10;13.98;;;8.23;;
75843;SDS011;64492;51.270;3.912;2022-11-20T06:16:36;11.80;;;7.60;;
75843;SDS011;64492;51.270;3.912;2022-11-20T06:19:03;15.15;;;8.25;;
75843;SDS011;64492;51.270;3.912;2022-11-20T06:21:29;12.52;;;7.95;;
75843;SDS011;64492;51.270;3.912;2022-11-20T06:23:56;13.77;;;8.80;;
75843;SDS011;64492;51.270;3.912;2022-11-20T06:26:24;11.07;;;7.45;;
75843;SDS011;64492;51.270;3.912;2022-11-20T06:28:52;12.75;;;8.10;;
75843;SDS011;64492;51.270;3.912;2022-11-20T06:31:19;12.15;;;7.80;;
75843;SDS011;64492;51.270;3.912;2022-11-20T06:33:47;12.65;;;7.80;;
75843;SDS011;64492;51.270;3.912;2022-11-20T06:36:15;12.02;;;7.22;;
75843;SDS011;64492;51.270;3.912;2022-11-20T06:38:43;11.20;;;6.72;;
75843;SDS011;64492;51.270;3.912;2022-11-20T06:41:10;11.52;;;7.22;;
75843;SDS011;64492;51.270;3.912;2022-11-20T06:43:40;11.15;;;7.47;;
75843;SDS011;64492;51.270;3.912;2022-11-20T06:46:08;11.60;;;7.05;;
75843;SDS011;64492;51.270;3.912;2022-11-20T06:48:35;11.00;;;7.00;;
75843;SDS011;64492;51.270;3.912;2022-11-20T06:51:02;10.77;;;7.25;;
75843;SDS011;64492;51.270;3.912;2022-11-20T06:53:29;11.10;;;6.40;;
75843;SDS011;64492;51.270;3.912;2022-11-20T06:55:56;10.13;;;6.78;;
75843;SDS011;64492;51.270;3.912;2022-11-20T06:58:25;11.45;;;7.65;;
75843;SDS011;64492;51.270;3.912;2022-11-20T07:00:54;11.00;;;6.63;;
75843;SDS011;64492;51.270;3.912;2022-11-20T07:03:24;10.35;;;7.15;;
75843;SDS011;64492;51.270;3.912;2022-11-20T07:05:50;11.35;;;6.82;;
75843;SDS011;64492;51.270;3.912;2022-11-20T07:08:17;10.68;;;7.22;;
75843;SDS011;64492;51.270;3.912;2022-11-20T07:10:43;11.48;;;7.47;;
75843;SDS011;64492;51.270;3.912;2022-11-20T07:13:09;10.88;;;7.32;;
75843;SDS011;64492;51.270;3.912;2022-11-20T07:15:36;12.57;;;7.63;;
75843;SDS011;64492;51.270;3.912;2022-11-20T07:18:04;11.13;;;6.85;;
75843;SDS011;64492;51.270;3.912;2022-11-20T07:20:30;9.48;;;6.38;;
75843;SDS011;64492;51.270;3.912;2022-11-20T07:22:57;12.32;;;7.47;;
75843;SDS011;64492;51.270;3.912;2022-11-20T07:25:24;11.38;;;7.18;;
75843;SDS011;64492;51.270;3.912;2022-11-20T07:27:51;14.13;;;7.72;;
75843;SDS011;64492;51.270;3.912;2022-11-20T07:30:18;11.40;;;7.72;;
75843;SDS011;64492;51.270;3.912;2022-11-20T07:32:45;13.52;;;7.90;;
75843;SDS011;64492;51.270;3.912;2022-11-20T07:35:13;13.52;;;7.65;;
75843;SDS011;64492;51.270;3.912;2022-11-20T07:37:40;10.85;;;6.70;;
75843;SDS011;64492;51.270;3.912;2022-11-20T07:40:07;11.18;;;6.70;;
75843;SDS011;64492;51.270;3.912;2022-11-20T07:42:34;13.25;;;7.30;;
75843;SDS011;64492;51.270;3.912;2022-11-20T07:45:00;11.85;;;7.25;;
75843;SDS011;64492;51.270;3.912;2022-11-20T07:47:27;12.00;;;7.25;;
75843;SDS011;64492;51.270;3.912;2022-11-20T07:49:53;12.50;;;7.50;;
75843;SDS011;64492;51.270;3.912;2022-11-20T07:52:21;11.50;;;7.15;;
75843;SDS011;64492;51.270;3.912;2022-11-20T07:54:47;11.82;;;7.35;;
75843;SDS011;64492;51.270;3.912;2022-11-20T07:57:14;11.38;;;7.05;;
75843;SDS011;64492;51.270;3.912;2022-11-20T07:59:40;13.93;;;7.32;;
75843;SDS011;64492;51.270;3.912;2022-11-20T08:02:09;12.77;;;7.15;;
75843;SDS011;64492;51.270;3.912;2022-11-20T08:04:36;13.95;;;7.53;;
75843;SDS011;64492;51.270;3.912;2022-11-20T08:07:02;13.80;;;6.82;;
75843;SDS011;64492;51.270;3.912;2022-11-20T08:09:30;13.88;;;7.55;;
75843;SDS011;64492;51.270;3.912;2022-11-20T08:11:57;12.48;;;7.60;;
75843;SDS011;64492;51.270;3.912;2022-11-20T08:14:37;14.63;;;8.38;;
75843;SDS011;64492;51.270;3.912;2022-11-20T08:17:04;10.88;;;6.70;;
75843;SDS011;64492;51.270;3.912;2022-11-20T08:19:31;11.35;;;7.00;;
75843;SDS011;64492;51.270;3.912;2022-11-20T08:21:57;12.55;;;7.47;;
75843;SDS011;64492;51.270;3.912;2022-11-20T08:24:24;11.57;;;7.50;;
75843;SDS011;64492;51.270;3.912;2022-11-20T08:26:52;13.85;;;7.70;;
75843;SDS011;64492;51.270;3.912;2022-11-20T08:29:19;11.77;;;7.30;;
75843;SDS011;64492;51.270;3.912;2022-11-20T08:31:45;12.55;;;7.25;;
75843;SDS011;64492;51.270;3.912;2022-11-20T08:34:12;12.63;;;7.53;;
75843;SDS011;64492;51.270;3.912;2022-11-20T08:36:38;11.73;;;7.65;;
75843;SDS011;64492;51.270;3.912;2022-11-20T08:39:05;12.90;;;7.68;;
75843;SDS011;64492;51.270;3.912;2022-11-20T08:41:31;12.75;;;8.18;;
75843;SDS011;64492;51.270;3.912;2022-11-20T08:44:00;12.63;;;7.35;;
75843;SDS011;64492;51.270;3.912;2022-11-20T08:46:28;12.73;;;7.45;;
75843;SDS011;64492;51.270;3.912;2022-11-20T08:48:58;12.45;;;7.65;;
75843;SDS011;64492;51.270;3.912;2022-11-20T08:51:25;11.60;;;6.68;;
75843;SDS011;64492;51.270;3.912;2022-11-20T08:53:52;14.05;;;7.45;;
75843;SDS011;64492;51.270;3.912;2022-11-20T08:56:19;14.98;;;7.82;;
75843;SDS011;64492;51.270;3.912;2022-11-20T08:58:45;12.77;;;7.50;;
75843;SDS011;64492;51.270;3.912;2022-11-20T09:01:13;13.18;;;6.65;;
75843;SDS011;64492;51.270;3.912;2022-11-20T09:03:39;10.00;;;6.20;;
75843;SDS011;64492;51.270;3.912;2022-11-20T09:06:06;12.13;;;7.15;;
75843;SDS011;64492;51.270;3.912;2022-11-20T09:08:33;11.98;;;7.10;;
75843;SDS011;64492;51.270;3.912;2022-11-20T09:11:01;12.23;;;7.80;;
75843;SDS011;64492;51.270;3.912;2022-11-20T09:13:28;10.55;;;6.50;;
75843;SDS011;64492;51.270;3.912;2022-11-20T09:15:56;12.15;;;7.43;;
75843;SDS011;64492;51.270;3.912;2022-11-20T09:18:24;12.07;;;7.40;;
75843;SDS011;64492;51.270;3.912;2022-11-20T09:20:51;10.27;;;7.05;;
75843;SDS011;64492;51.270;3.912;2022-11-20T09:23:18;11.10;;;7.03;;
75843;SDS011;64492;51.270;3.912;2022-11-20T09:25:45;13.82;;;7.90;;
75843;SDS011;64492;51.270;3.912;2022-11-20T09:28:11;12.55;;;7.47;;
75843;SDS011;64492;51.270;3.912;2022-11-20T09:30:38;13.27;;;7.03;;
75843;SDS011;64492;51.270;3.912;2022-11-20T09:33:05;13.60;;;7.40;;
75843;SDS011;64492;51.270;3.912;2022-11-20T09:35:33;13.02;;;7.63;;
75843;SDS011;64492;51.270;3.912;2022-11-20T09:38:04;15.15;;;7.72;;
75843;SDS011;64492;51.270;3.912;2022-11-20T09:40:31;14.13;;;7.93;;
75843;SDS011;64492;51.270;3.912;2022-11-20T09:42:59;11.25;;;7.10;;
75843;SDS011;64492;51.270;3.912;2022-11-20T09:45:36;11.95;;;7.13;;
75843;SDS011;64492;51.270;3.912;2022-11-20T09:48:12;12.18;;;7.03;;
75843;SDS011;64492;51.270;3.912;2022-11-20T09:50:47;13.40;;;8.65;;
75843;SDS011;64492;51.270;3.912;2022-11-20T09:53:20;12.20;;;7.13;;
75843;SDS011;64492;51.270;3.912;2022-11-20T09:55:52;11.05;;;6.78;;
75843;SDS011;64492;51.270;3.912;2022-11-20T09:58:21;12.13;;;7.00;;
75843;SDS011;64492;51.270;3.912;2022-11-20T10:00:54;13.48;;;7.15;;
75843;SDS011;64492;51.270;3.912;2022-11-20T10:03:26;12.02;;;6.78;;
75843;SDS011;64492;51.270;3.912;2022-11-20T10:06:03;12.30;;;7.10;;
75843;SDS011;64492;51.270;3.912;2022-11-20T10:08:34;11.32;;;7.25;;
75843;SDS011;64492;51.270;3.912;2022-11-20T10:11:05;11.45;;;6.88;;
75843;SDS011;64492;51.270;3.912;2022-11-20T10:13:39;12.52;;;7.22;;
75843;SDS011;64492;51.270;3.912;2022-11-20T10:16:14;11.27;;;6.68;;
75843;SDS011;64492;51.270;3.912;2022-11-20T10:18:49;11.23;;;6.80;;
75843;SDS011;64492;51.270;3.912;2022-11-20T10:21:26;12.65;;;6.75;;
75843;SDS011;64492;51.270;3.912;2022-11-20T10:24:14;10.63;;;6.60;;
75843;SDS011;64492;51.270;3.912;2022-11-20T10:26:52;12.27;;;7.88;;
75843;SDS011;64492;51.270;3.912;2022-11-20T10:29:24;11.95;;;7.35;;
75843;SDS011;64492;51.270;3.912;2022-11-20T10:31:55;11.23;;;7.10;;
75843;SDS011;64492;51.270;3.912;2022-11-20T10:34:23;12.35;;;7.53;;
75843;SDS011;64492;51.270;3.912;2022-11-20T10:36:54;10.88;;;6.47;;
75843;SDS011;64492;51.270;3.912;2022-11-20T10:39:24;12.65;;;7.30;;
75843;SDS011;64492;51.270;3.912;2022-11-20T10:41:56;13.98;;;7.30;;
75843;SDS011;64492;51.270;3.912;2022-11-20T10:44:26;13.18;;;7.70;;
75843;SDS011;64492;51.270;3.912;2022-11-20T10:47:12;16.67;;;8.73;;
75843;SDS011;64492;51.270;3.912;2022-11-20T10:49:39;15.32;;;8.82;;
75843;SDS011;64492;51.270;3.912;2022-11-20T10:52:10;16.23;;;7.95;;
75843;SDS011;64492;51.270;3.912;2022-11-20T10:54:41;12.38;;;7.40;;
75843;SDS011;64492;51.270;3.912;2022-11-20T10:57:13;12.27;;;7.47;;
75843;SDS011;64492;51.270;3.912;2022-11-20T10:59:59;11.70;;;6.53;;
75843;SDS011;64492;51.270;3.912;2022-11-20T11:02:31;15.77;;;6.97;;
75843;SDS011;64492;51.270;3.912;2022-11-20T11:05:00;14.73;;;7.50;;
75843;SDS011;64492;51.270;3.912;2022-11-20T11:07:35;13.73;;;7.78;;
75843;SDS011;64492;51.270;3.912;2022-11-20T11:10:05;16.42;;;7.88;;
75843;SDS011;64492;51.270;3.912;2022-11-20T11:12:42;15.55;;;8.10;;
75843;SDS011;64492;51.270;3.912;2022-11-20T11:15:11;12.18;;;6.82;;
75843;SDS011;64492;51.270;3.912;2022-11-20T11:17:45;13.13;;;6.40;;
75843;SDS011;64492;51.270;3.912;2022-11-20T11:20:14;13.73;;;6.70;;
75843;SDS011;64492;51.270;3.912;2022-11-20T11:22:45;11.23;;;6.25;;
75843;SDS011;64492;51.270;3.912;2022-11-20T11:25:24;11.65;;;6.55;;
75843;SDS011;64492;51.270;3.912;2022-11-20T11:27:52;11.77;;;6.15;;
75843;SDS011;64492;51.270;3.912;2022-11-20T11:30:21;13.18;;;6.55;;
75843;SDS011;64492;51.270;3.912;2022-11-20T11:32:49;11.75;;;6.28;;
75843;SDS011;64492;51.270;3.912;2022-11-20T11:35:20;12.65;;;7.40;;
75843;SDS011;64492;51.270;3.912;2022-11-20T11:37:53;11.20;;;6.75;;
75843;SDS011;64492;51.270;3.912;2022-11-20T11:40:28;10.38;;;6.07;;
75843;SDS011;64492;51.270;3.912;2022-11-20T11:42:57;11.20;;;6.22;;
75843;SDS011;64492;51.270;3.912;2022-11-20T11:47:51;11.27;;;6.10;;
75843;SDS011;64492;51.270;3.912;2022-11-20T11:50:19;8.20;;;5.28;;
75843;SDS011;64492;51.270;3.912;2022-11-20T11:52:48;9.82;;;5.93;;
75843;SDS011;64492;51.270;3.912;2022-11-20T11:55:23;11.02;;;5.57;;
75843;SDS011;64492;51.270;3.912;2022-11-20T11:57:54;10.05;;;5.57;;
75843;SDS011;64492;51.270;3.912;2022-11-20T12:00:23;12.30;;;6.22;;
75843;SDS011;64492;51.270;3.912;2022-11-20T12:02:53;8.07;;;5.18;;
75843;SDS011;64492;51.270;3.912;2022-11-20T12:05:26;10.63;;;5.72;;
75843;SDS011;64492;51.270;3.912;2022-11-20T12:07:56;8.13;;;5.25;;
75843;SDS011;64492;51.270;3.912;2022-11-20T12:10:32;10.35;;;6.18;;
75843;SDS011;64492;51.270;3.912;2022-11-20T12:15:56;8.02;;;5.05;;
75843;SDS011;64492;51.270;3.912;2022-11-20T12:18:23;8.50;;;5.75;;
75843;SDS011;64492;51.270;3.912;2022-11-20T12:20:54;7.30;;;4.43;;
75843;SDS011;64492;51.270;3.912;2022-11-20T12:23:44;8.88;;;5.18;;
75843;SDS011;64492;51.270;3.912;2022-11-20T12:26:19;7.03;;;4.68;;
75843;SDS011;64492;51.270;3.912;2022-11-20T12:29:00;9.07;;;5.32;;
75843;SDS011;64492;51.270;3.912;2022-11-20T12:31:38;7.03;;;4.30;;
75843;SDS011;64492;51.270;3.912;2022-11-20T12:34:27;9.13;;;4.57;;
75843;SDS011;64492;51.270;3.912;2022-11-20T12:37:04;9.65;;;5.82;;
75843;SDS011;64492;51.270;3.912;2022-11-20T12:39:36;10.27;;;5.13;;
75843;SDS011;64492;51.270;3.912;2022-11-20T12:42:16;7.85;;;4.43;;
75843;SDS011;64492;51.270;3.912;2022-11-20T12:45:10;8.80;;;5.18;;
75843;SDS011;64492;51.270;3.912;2022-11-20T12:47:50;7.72;;;4.50;;
75843;SDS011;64492;51.270;3.912;2022-11-20T12:50:27;7.43;;;4.55;;
75843;SDS011;64492;51.270;3.912;2022-11-20T12:52:59;7.57;;;4.50;;
75843;SDS011;64492;51.270;3.912;2022-11-20T12:55:36;7.60;;;4.45;;
75843;SDS011;64492;51.270;3.912;2022-11-20T12:58:10;8.48;;;4.60;;
75843;SDS011;64492;51.270;3.912;2022-11-20T13:00:40;6.97;;;4.05;;
75843;SDS011;64492;51.270;3.912;2022-11-20T13:03:16;6.78;;;4.30;;
75843;SDS011;64492;51.270;3.912;2022-11-20T13:06:03;8.48;;;4.63;;
75843;SDS011;64492;51.270;3.912;2022-11-20T13:08:36;6.57;;;4.03;;
75843;SDS011;64492;51.270;3.912;2022-11-20T13:11:09;6.40;;;3.95;;
75843;SDS011;64492;51.270;3.912;2022-11-20T13:13:49;8.32;;;4.47;;
75843;SDS011;64492;51.270;3.912;2022-11-20T13:16:30;5.82;;;3.83;;
75843;SDS011;64492;51.270;3.912;2022-11-20T13:19:01;6.32;;;4.03;;
75843;SDS011;64492;51.270;3.912;2022-11-20T13:21:35;7.00;;;4.20;;
75843;SDS011;64492;51.270;3.912;2022-11-20T13:24:05;7.35;;;3.78;;
75843;SDS011;64492;51.270;3.912;2022-11-20T13:26:34;7.32;;;3.90;;
75843;SDS011;64492;51.270;3.912;2022-11-20T13:29:02;7.25;;;3.80;;
75843;SDS011;64492;51.270;3.912;2022-11-20T13:31:34;5.75;;;3.58;;
75843;SDS011;64492;51.270;3.912;2022-11-20T13:34:02;7.55;;;4.22;;
75843;SDS011;64492;51.270;3.912;2022-11-20T13:36:30;5.90;;;3.67;;
75843;SDS011;64492;51.270;3.912;2022-11-20T13:38:59;6.75;;;3.58;;
75843;SDS011;64492;51.270;3.912;2022-11-20T13:41:26;6.85;;;4.00;;
75843;SDS011;64492;51.270;3.912;2022-11-20T13:46:23;6.55;;;3.63;;
75843;SDS011;64492;51.270;3.912;2022-11-20T13:49:05;6.55;;;3.38;;
75843;SDS011;64492;51.270;3.912;2022-11-20T13:51:35;7.00;;;3.35;;
75843;SDS011;64492;51.270;3.912;2022-11-20T13:57:21;7.20;;;3.72;;
75843;SDS011;64492;51.270;3.912;2022-11-20T14:00:02;6.18;;;3.60;;
75843;SDS011;64492;51.270;3.912;2022-11-20T14:02:31;5.63;;;3.40;;
75843;SDS011;64492;51.270;3.912;2022-11-20T14:04:58;7.22;;;3.60;;
75843;SDS011;64492;51.270;3.912;2022-11-20T14:07:27;4.70;;;3.03;;
75843;SDS011;64492;51.270;3.912;2022-11-20T14:09:59;5.45;;;3.33;;
75843;SDS011;64492;51.270;3.912;2022-11-20T14:12:27;5.70;;;3.30;;
75843;SDS011;64492;51.270;3.912;2022-11-20T14:14:55;5.82;;;3.20;;
75843;SDS011;64492;51.270;3.912;2022-11-20T14:17:23;5.30;;;3.60;;
75843;SDS011;64492;51.270;3.912;2022-11-20T14:19:55;7.25;;;3.45;;
75843;SDS011;64492;51.270;3.912;2022-11-20T14:22:25;5.72;;;3.38;;
75843;SDS011;64492;51.270;3.912;2022-11-20T14:25:00;5.10;;;3.40;;
75843;SDS011;64492;51.270;3.912;2022-11-20T14:27:29;4.65;;;2.80;;
75843;SDS011;64492;51.270;3.912;2022-11-20T14:30:00;5.68;;;3.58;;
75843;SDS011;64492;51.270;3.912;2022-11-20T14:32:29;5.15;;;3.10;;
75843;SDS011;64492;51.270;3.912;2022-11-20T14:34:57;5.65;;;3.40;;
75843;SDS011;64492;51.270;3.912;2022-11-20T14:37:33;5.53;;;2.92;;
75843;SDS011;64492;51.270;3.912;2022-11-20T14:40:02;5.53;;;3.17;;
75843;SDS011;64492;51.270;3.912;2022-11-20T14:42:46;5.63;;;3.35;;
75843;SDS011;64492;51.270;3.912;2022-11-20T14:45:13;5.93;;;3.10;;
75843;SDS011;64492;51.270;3.912;2022-11-20T14:47:41;5.07;;;2.80;;
75843;SDS011;64492;51.270;3.912;2022-11-20T14:52:37;4.28;;;2.78;;
75843;SDS011;64492;51.270;3.912;2022-11-20T14:55:04;5.18;;;2.92;;
75843;SDS011;64492;51.270;3.912;2022-11-20T14:57:32;5.00;;;3.58;;
75843;SDS011;64492;51.270;3.912;2022-11-20T15:00:06;5.78;;;3.20;;
75843;SDS011;64492;51.270;3.912;2022-11-20T15:02:38;6.03;;;3.55;;
75843;SDS011;64492;51.270;3.912;2022-11-20T15:05:06;4.80;;;2.88;;
75843;SDS011;64492;51.270;3.912;2022-11-20T15:07:34;4.82;;;3.03;;
75843;SDS011;64492;51.270;3.912;2022-11-20T15:10:02;5.70;;;3.70;;
75843;SDS011;64492;51.270;3.912;2022-11-20T15:14:56;6.45;;;3.00;;
75843;SDS011;64492;51.270;3.912;2022-11-20T15:17:23;4.82;;;3.40;;